Terminal Aerodrome Forecast
Issued by NWS Portland, OR

Home | Current Version | Previous Version | Text Only | Print | Product List | Glossary On
Versions: 1 2 3 4 5 6 7 8 9 10 11 12 13 14 15 16 17 18 19 20 21 22 23 24 25
000
FTUS46 KPQR 260102 AAA
TAFSLE
TAF AMD
KSLE 260102Z 2601/2624 17012KT 2SM -RA BR BKN008 OVC015
     FM260400 19008KT P6SM -RA SCT015 OVC025
     FM261800 23009KT 6SM -SHRA OVC025=

USA.gov is the U.S. government's official web portal to all federal, state and local government web resources and services.